createdAt,value
2023-02-17T00:01:32.851Z,24.63
2023-02-17T00:04:00.898Z,22.13
2023-02-17T00:06:30.345Z,21.08
2023-02-17T00:09:02.092Z,19.65
2023-02-17T00:11:30.300Z,18.23
2023-02-17T00:13:58.759Z,19.63
2023-02-17T00:16:27.242Z,18.45
2023-02-17T00:18:59.711Z,19.52
2023-02-17T00:21:29.017Z,20.05
2023-02-17T00:23:57.548Z,23.23
2023-02-17T00:26:26.194Z,26.95
2023-02-17T00:28:53.924Z,34.50
2023-02-17T00:33:55.213Z,31.88
2023-02-17T00:36:23.156Z,33.10
2023-02-17T00:38:51.799Z,32.85
2023-02-17T00:41:19.581Z,23.92
2023-02-17T00:43:47.624Z,17.70
2023-02-17T00:46:16.784Z,15.60
2023-02-17T00:48:48.010Z,16.38
2023-02-17T00:51:16.795Z,17.05
2023-02-17T00:53:46.229Z,19.77
2023-02-17T00:56:14.186Z,18.13
2023-02-17T00:58:42.459Z,21.23
2023-02-17T01:01:11.078Z,20.20
2023-02-17T01:03:42.472Z,22.10
2023-02-17T01:06:23.780Z,26.40
2023-02-17T01:08:51.735Z,27.52
2023-02-17T01:11:26.100Z,35.33
2023-02-17T01:13:54.359Z,45.20
2023-02-17T01:16:30.654Z,38.38
2023-02-17T01:19:00.238Z,27.17
2023-02-17T01:21:28.832Z,21.50
2023-02-17T01:23:57.976Z,22.88
2023-02-17T01:26:26.819Z,27.67
2023-02-17T01:28:55.152Z,48.53
2023-02-17T01:31:23.339Z,59.33
2023-02-17T01:34:00.187Z,62.85
2023-02-17T01:36:28.240Z,65.30
2023-02-17T01:39:00.724Z,56.10
2023-02-17T01:41:28.838Z,55.67
2023-02-17T01:44:06.765Z,58.33
2023-02-17T01:46:46.375Z,61.78
2023-02-17T01:49:14.169Z,58.55
2023-02-17T01:51:42.265Z,60.50
2023-02-17T01:54:13.475Z,58.97
2023-02-17T01:56:43.412Z,56.55
2023-02-17T01:59:13.194Z,57.88
2023-02-17T02:01:41.402Z,63.03
2023-02-17T02:04:09.603Z,63.80
2023-02-17T02:06:39.176Z,64.78
2023-02-17T02:09:18.079Z,59.00
2023-02-17T02:11:50.172Z,60.42
2023-02-17T02:14:18.686Z,54.33
2023-02-17T02:17:25.856Z,35.38
2023-02-17T02:20:21.473Z,33.88
2023-02-17T02:23:01.285Z,28.33
2023-02-17T02:26:07.754Z,31.33
2023-02-17T02:28:57.476Z,27.42
2023-02-17T02:31:31.040Z,31.33
2023-02-17T02:34:20.447Z,25.73
2023-02-17T02:37:02.465Z,23.30
2023-02-17T02:39:35.534Z,23.48
2023-02-17T02:42:06.235Z,22.50
2023-02-17T02:47:06.846Z,17.05
2023-02-17T02:49:35.804Z,17.02
2023-02-17T02:52:10.689Z,11.63
2023-02-17T02:54:59.091Z,13.43
2023-02-17T02:57:36.455Z,12.80
2023-02-17T03:00:12.540Z,13.63
2023-02-17T03:02:48.570Z,12.27
2023-02-17T03:05:33.534Z,11.63
2023-02-17T03:08:22.450Z,11.60
2023-02-17T03:10:52.317Z,11.00
2023-02-17T03:13:21.262Z,9.40
2023-02-17T03:15:49.411Z,11.50
2023-02-17T03:18:17.616Z,10.95
2023-02-17T03:20:51.351Z,9.68
2023-02-17T03:23:21.283Z,11.15
2023-02-17T03:25:49.949Z,10.07
2023-02-17T03:28:19.068Z,9.60
2023-02-17T03:30:48.031Z,10.80
2023-02-17T03:33:17.177Z,9.20
2023-02-17T03:35:45.048Z,11.10
2023-02-17T03:38:12.856Z,10.48
2023-02-17T03:40:40.813Z,10.60
2023-02-17T03:43:08.732Z,10.30
2023-02-17T03:45:37.752Z,10.20
2023-02-17T03:48:06.015Z,10.13
2023-02-17T03:50:33.821Z,10.55
2023-02-17T03:53:01.967Z,11.27
2023-02-17T03:55:30.050Z,11.02
2023-02-17T03:57:57.859Z,10.88
2023-02-17T04:00:25.695Z,12.07
2023-02-17T04:02:53.959Z,10.40
2023-02-17T04:05:21.852Z,10.57
2023-02-17T04:07:50.355Z,10.68
2023-02-17T04:10:18.791Z,10.82
2023-02-17T04:12:46.465Z,9.52
2023-02-17T04:15:14.294Z,10.32
2023-02-17T04:17:44.272Z,9.68
2023-02-17T04:20:12.499Z,10.20
2023-02-17T04:22:40.446Z,9.20
2023-02-17T04:25:08.534Z,10.40
2023-02-17T04:27:36.430Z,9.20
2023-02-17T04:30:05.572Z,9.75
2023-02-17T04:32:33.400Z,8.85
2023-02-17T04:35:01.229Z,9.20
2023-02-17T04:37:29.334Z,9.85
2023-02-17T04:39:57.413Z,9.77
2023-02-17T04:42:25.278Z,9.55
2023-02-17T04:44:53.429Z,9.20
2023-02-17T04:47:21.330Z,7.65
2023-02-17T04:49:49.133Z,8.57
2023-02-17T04:52:17.042Z,8.65
2023-02-17T04:54:44.808Z,7.70
2023-02-17T04:57:12.738Z,8.45
2023-02-17T04:59:41.390Z,8.05
2023-02-17T05:02:09.230Z,8.55
2023-02-17T05:04:38.620Z,7.57
2023-02-17T05:07:08.826Z,7.90
2023-02-17T05:09:38.864Z,8.00
2023-02-17T05:12:07.972Z,8.32
2023-02-17T05:14:35.768Z,9.88
2023-02-17T05:17:03.937Z,8.00
2023-02-17T05:19:33.042Z,8.85
2023-02-17T05:22:01.047Z,7.88
2023-02-17T05:24:29.611Z,7.75
2023-02-17T05:26:59.131Z,7.40
2023-02-17T05:29:45.062Z,6.43
2023-02-17T05:32:13.190Z,8.45
2023-02-17T05:34:43.706Z,6.72
2023-02-17T05:37:11.712Z,7.72
2023-02-17T05:39:39.792Z,7.63
2023-02-17T05:44:39.364Z,6.10
2023-02-17T05:47:09.264Z,8.50
2023-02-17T05:49:38.184Z,7.35
2023-02-17T05:52:06.209Z,7.18
2023-02-17T05:54:35.540Z,7.78
2023-02-17T05:57:04.052Z,7.45
2023-02-17T05:59:33.939Z,6.13
2023-02-17T06:02:01.944Z,7.35
2023-02-17T06:04:30.775Z,6.15
2023-02-17T06:06:59.049Z,7.38
2023-02-17T06:09:26.898Z,5.90
2023-02-17T06:11:56.268Z,6.05
2023-02-17T06:14:24.082Z,5.88
2023-02-17T06:16:51.851Z,5.70
2023-02-17T06:19:19.899Z,5.50
2023-02-17T06:21:48.482Z,5.72
2023-02-17T06:24:17.276Z,5.38
2023-02-17T06:26:45.465Z,5.88
2023-02-17T06:29:13.305Z,4.35
2023-02-17T06:31:43.477Z,5.07
2023-02-17T06:34:12.107Z,4.78
2023-02-17T06:36:40.461Z,6.10
2023-02-17T06:39:08.319Z,5.95
2023-02-17T06:41:36.547Z,5.68
2023-02-17T06:44:09.629Z,5.95
2023-02-17T06:46:38.238Z,7.25
2023-02-17T06:49:06.047Z,5.80
2023-02-17T06:51:34.462Z,7.40
2023-02-17T06:54:02.359Z,5.68
2023-02-17T06:56:30.285Z,6.03
2023-02-17T06:58:58.117Z,5.40
2023-02-17T07:01:26.466Z,5.50
2023-02-17T07:03:55.084Z,5.72
2023-02-17T07:06:24.361Z,5.20
2023-02-17T07:08:52.919Z,6.63
2023-02-17T07:11:20.990Z,5.82
2023-02-17T07:13:48.728Z,5.97
2023-02-17T07:16:17.773Z,6.15
2023-02-17T07:18:45.776Z,6.40
2023-02-17T07:21:14.084Z,5.95
2023-02-17T07:23:42.266Z,7.03
2023-02-17T07:26:11.484Z,6.13
2023-02-17T07:28:39.965Z,5.47
2023-02-17T07:31:12.396Z,6.18
2023-02-17T07:33:42.389Z,5.65
2023-02-17T07:36:13.488Z,6.53
2023-02-17T07:38:42.166Z,5.55
2023-02-17T07:41:17.173Z,6.32
2023-02-17T07:43:45.290Z,5.68
2023-02-17T07:46:13.366Z,7.18
2023-02-17T07:48:41.608Z,6.28
2023-02-17T07:51:11.693Z,6.30
2023-02-17T07:53:39.670Z,6.28
2023-02-17T07:56:11.731Z,4.95
2023-02-17T07:58:40.492Z,5.45
2023-02-17T08:01:19.661Z,5.10
2023-02-17T08:03:50.153Z,5.18
2023-02-17T08:06:19.665Z,4.38
2023-02-17T08:09:07.143Z,4.78
2023-02-17T08:11:54.357Z,5.35
2023-02-17T08:14:27.404Z,5.90
2023-02-17T08:17:02.232Z,5.47
2023-02-17T08:19:46.504Z,5.68
2023-02-17T08:22:19.181Z,4.75
2023-02-17T08:24:47.329Z,5.63
2023-02-17T08:27:15.641Z,5.82
2023-02-17T08:29:45.051Z,4.72
2023-02-17T08:32:13.978Z,5.30
2023-02-17T08:34:43.192Z,5.43
2023-02-17T08:37:20.087Z,5.35
2023-02-17T08:39:52.996Z,5.05
2023-02-17T08:42:21.227Z,5.65
2023-02-17T08:44:49.747Z,5.38
2023-02-17T08:47:21.249Z,4.50
2023-02-17T08:49:50.784Z,4.85
2023-02-17T08:52:18.505Z,7.45
2023-02-17T08:54:46.673Z,7.53
2023-02-17T08:57:15.091Z,6.88
2023-02-17T08:59:42.841Z,4.95
2023-02-17T09:02:11.449Z,5.97
2023-02-17T09:04:55.849Z,5.40
2023-02-17T09:07:26.485Z,4.10
2023-02-17T09:09:58.956Z,4.47
2023-02-17T09:12:30.921Z,4.80
2023-02-17T09:15:00.500Z,6.07
2023-02-17T09:17:28.446Z,5.05
2023-02-17T09:19:58.498Z,5.22
2023-02-17T09:22:31.916Z,5.95
2023-02-17T09:25:02.038Z,5.30
2023-02-17T09:27:30.088Z,5.03
2023-02-17T09:29:58.361Z,4.55
2023-02-17T09:32:29.444Z,4.88
2023-02-17T09:35:03.192Z,5.32
2023-02-17T09:37:31.187Z,4.93
2023-02-17T09:39:59.221Z,5.38
2023-02-17T09:42:28.429Z,5.22
2023-02-17T09:45:11.954Z,4.47
2023-02-17T09:47:46.792Z,4.68
2023-02-17T09:50:22.807Z,5.00
2023-02-17T09:53:11.631Z,5.15
2023-02-17T09:55:43.985Z,4.70
2023-02-17T09:58:14.718Z,4.10
2023-02-17T10:00:49.205Z,4.18
2023-02-17T10:03:19.933Z,4.63
2023-02-17T10:10:11.200Z,4.63
2023-02-17T10:13:07.999Z,5.15
2023-02-17T10:15:43.735Z,4.70
2023-02-17T10:18:29.231Z,7.32
2023-02-17T10:21:27.471Z,4.82
2023-02-17T10:23:57.959Z,5.78
2023-02-17T10:26:58.442Z,4.82
2023-02-17T10:29:37.863Z,4.03
2023-02-17T10:32:26.853Z,3.40
2023-02-17T10:35:16.462Z,4.25
2023-02-17T10:40:42.138Z,5.00
2023-02-17T10:43:16.022Z,5.35
2023-02-17T10:45:50.596Z,5.38
2023-02-17T10:48:35.515Z,5.05
2023-02-17T10:51:44.132Z,4.45
2023-02-17T10:55:20.942Z,4.82
2023-02-17T10:58:14.092Z,5.05
2023-02-17T11:00:43.795Z,5.68
2023-02-17T11:03:21.233Z,5.18
2023-02-17T11:06:16.008Z,4.45
2023-02-17T11:08:49.420Z,5.18
2023-02-17T11:11:31.983Z,5.93
2023-02-17T11:14:14.410Z,4.80
2023-02-17T11:16:47.488Z,5.05
2023-02-17T11:19:36.381Z,5.95
2023-02-17T11:22:26.327Z,6.55
2023-02-17T11:25:01.916Z,5.45
2023-02-17T11:27:30.109Z,5.80
2023-02-17T11:30:15.408Z,4.85
2023-02-17T11:32:43.389Z,5.53
2023-02-17T11:35:53.627Z,6.10
2023-02-17T11:38:45.942Z,6.30
2023-02-17T11:41:13.864Z,4.85
2023-02-17T11:43:54.063Z,5.72
2023-02-17T11:46:25.206Z,6.65
2023-02-17T11:49:21.812Z,4.82
2023-02-17T11:52:00.419Z,4.80
2023-02-17T11:54:37.393Z,6.32
2023-02-17T11:57:21.236Z,5.10
2023-02-17T12:00:14.900Z,4.80
2023-02-17T12:03:11.500Z,4.90
2023-02-17T12:05:59.394Z,5.07
2023-02-17T12:08:50.173Z,4.70
2023-02-17T12:11:30.966Z,4.45
2023-02-17T12:14:16.938Z,4.75
2023-02-17T12:16:50.956Z,5.10
2023-02-17T12:19:37.280Z,4.85
2023-02-17T12:22:51.715Z,5.68
2023-02-17T12:25:34.441Z,6.25
2023-02-17T12:28:13.159Z,5.13
2023-02-17T12:31:05.346Z,5.18
2023-02-17T12:33:49.535Z,5.22
2023-02-17T12:36:18.391Z,5.22
2023-02-17T12:38:50.286Z,6.63
2023-02-17T12:41:21.922Z,4.68
2023-02-17T12:44:26.280Z,7.00
2023-02-17T12:46:56.438Z,5.68
2023-02-17T12:49:27.449Z,5.87
2023-02-17T12:52:07.630Z,5.63
2023-02-17T12:55:03.494Z,6.40
2023-02-17T12:57:57.501Z,5.45
2023-02-17T13:00:34.013Z,5.25
2023-02-17T13:03:04.983Z,5.70
2023-02-17T13:05:34.651Z,5.70
2023-02-17T13:08:09.147Z,6.50
2023-02-17T13:10:39.905Z,6.63
2023-02-17T13:13:14.574Z,6.57
2023-02-17T13:15:44.151Z,6.80
2023-02-17T13:18:28.104Z,7.78
2023-02-17T13:20:59.809Z,6.45
2023-02-17T13:23:37.884Z,5.60
2023-02-17T13:26:22.638Z,8.68
2023-02-17T13:28:51.194Z,7.78
2023-02-17T13:31:26.099Z,6.97
2023-02-17T13:33:58.061Z,6.13
2023-02-17T13:36:29.373Z,6.63
2023-02-17T13:39:06.449Z,7.93
2023-02-17T13:41:50.203Z,6.97
2023-02-17T13:44:31.512Z,7.10
2023-02-17T13:47:05.526Z,6.88
2023-02-17T13:49:35.346Z,6.13
2023-02-17T13:52:23.122Z,9.65
2023-02-17T13:55:07.158Z,8.18
2023-02-17T13:57:38.072Z,8.35
2023-02-17T14:00:23.987Z,6.63
2023-02-17T14:03:11.539Z,6.90
2023-02-17T14:05:50.406Z,7.40
2023-02-17T14:08:37.530Z,6.50
2023-02-17T14:11:13.505Z,7.75
2023-02-17T14:13:47.958Z,7.40
2023-02-17T14:16:32.404Z,7.97
2023-02-17T14:19:05.909Z,7.80
2023-02-17T14:21:34.264Z,6.35
2023-02-17T14:24:05.049Z,7.20
2023-02-17T14:26:42.673Z,6.90
2023-02-17T14:29:12.934Z,6.90
2023-02-17T14:31:41.669Z,7.22
2023-02-17T14:34:34.395Z,7.85
2023-02-17T14:37:11.003Z,5.60
2023-02-17T14:39:39.472Z,7.90
2023-02-17T14:42:08.165Z,7.97
2023-02-17T14:44:39.874Z,8.90
2023-02-17T14:47:10.284Z,9.27
2023-02-17T14:49:38.235Z,8.55
2023-02-17T14:52:35.336Z,9.65
2023-02-17T14:55:11.107Z,8.30
2023-02-17T14:57:47.409Z,8.27
2023-02-17T15:00:19.556Z,8.20
2023-02-17T15:02:51.514Z,9.35
2023-02-17T15:05:21.897Z,8.77
2023-02-17T15:07:49.814Z,9.45
2023-02-17T15:10:29.850Z,9.30
2023-02-17T15:13:03.323Z,9.32
2023-02-17T15:15:39.530Z,8.15
2023-02-17T15:18:08.472Z,9.00
2023-02-17T15:20:37.027Z,9.48
2023-02-17T15:23:07.249Z,10.10
2023-02-17T15:25:37.369Z,10.77
2023-02-17T15:28:10.146Z,11.00
2023-02-17T15:30:41.370Z,12.05
2023-02-17T15:35:45.537Z,11.65
2023-02-17T15:38:14.231Z,12.77
2023-02-17T15:40:43.603Z,14.77
2023-02-17T15:43:17.375Z,14.02
2023-02-17T15:45:45.791Z,12.30
2023-02-17T15:48:24.400Z,12.02
2023-02-17T15:50:52.592Z,15.50
2023-02-17T15:53:20.636Z,14.50
2023-02-17T15:55:48.904Z,15.10
2023-02-17T15:58:18.400Z,14.45
2023-02-17T16:00:46.859Z,14.23
2023-02-17T16:03:15.362Z,14.32
2023-02-17T16:05:44.173Z,14.75
2023-02-17T16:08:12.684Z,15.02
2023-02-17T16:10:42.814Z,14.95
2023-02-17T16:13:16.579Z,15.32
2023-02-17T16:15:44.477Z,16.20
2023-02-17T16:18:21.894Z,14.60
2023-02-17T16:20:50.458Z,13.05
2023-02-17T16:23:19.844Z,14.68
2023-02-17T16:25:48.529Z,15.00
2023-02-17T16:28:18.877Z,14.07
2023-02-17T16:30:49.815Z,11.48
2023-02-17T16:33:23.209Z,12.77
2023-02-17T16:35:51.265Z,12.65
2023-02-17T16:38:27.416Z,13.57
2023-02-17T16:43:27.801Z,14.73
2023-02-17T16:46:01.880Z,13.70
2023-02-17T16:48:35.089Z,13.57
2023-02-17T16:51:03.310Z,13.85
2023-02-17T16:53:31.707Z,12.73
2023-02-17T16:55:59.815Z,12.50
2023-02-17T16:58:27.644Z,13.13
2023-02-17T17:00:56.068Z,13.60
2023-02-17T17:03:24.031Z,12.52
2023-02-17T17:05:52.715Z,9.75
2023-02-17T17:08:22.136Z,14.10
2023-02-17T17:10:53.708Z,11.15
2023-02-17T17:13:23.957Z,11.40
2023-02-17T17:15:52.253Z,13.10
2023-02-17T17:18:21.439Z,11.48
2023-02-17T17:20:50.053Z,11.15
2023-02-17T17:23:20.405Z,11.20
2023-02-17T17:25:49.205Z,10.02
2023-02-17T17:28:19.607Z,12.25
2023-02-17T17:30:47.646Z,11.63
2023-02-17T17:33:19.360Z,11.18
2023-02-17T17:35:47.451Z,12.45
2023-02-17T17:38:18.526Z,11.77
2023-02-17T17:40:53.599Z,11.25
2023-02-17T17:43:22.029Z,11.88
2023-02-17T17:45:50.286Z,12.10
2023-02-17T17:48:19.096Z,12.73
2023-02-17T17:50:49.273Z,14.52
2023-02-17T17:53:17.279Z,16.42
2023-02-17T17:55:46.663Z,14.90
2023-02-17T17:58:16.433Z,17.65
2023-02-17T18:00:44.382Z,15.75
2023-02-17T18:03:13.087Z,23.23
2023-02-17T18:05:41.288Z,21.40
2023-02-17T18:08:09.804Z,18.83
2023-02-17T18:10:38.693Z,26.45
2023-02-17T18:13:09.405Z,18.00
2023-02-17T18:15:37.301Z,22.02
2023-02-17T18:18:05.866Z,19.67
2023-02-17T18:20:34.893Z,22.73
2023-02-17T18:23:02.820Z,18.40
2023-02-17T18:25:30.652Z,20.90
2023-02-17T18:27:58.998Z,19.33
2023-02-17T18:30:28.034Z,16.90
2023-02-17T18:33:00.480Z,16.60
2023-02-17T18:35:28.488Z,16.05
2023-02-17T18:37:56.418Z,15.15
2023-02-17T18:40:26.248Z,17.52
2023-02-17T18:42:53.952Z,16.15
2023-02-17T18:45:21.746Z,16.05
2023-02-17T18:47:49.683Z,15.45
2023-02-17T18:50:17.728Z,18.27
2023-02-17T18:52:46.076Z,17.52
2023-02-17T18:55:14.441Z,16.17
2023-02-17T18:57:43.082Z,16.35
2023-02-17T19:00:13.968Z,16.92
2023-02-17T19:02:42.277Z,15.80
2023-02-17T19:05:11.270Z,14.88
2023-02-17T19:07:39.243Z,15.40
2023-02-17T19:10:07.905Z,12.77
2023-02-17T19:12:35.950Z,13.00
2023-02-17T19:15:06.149Z,12.80
2023-02-17T19:17:34.250Z,10.23
2023-02-17T19:20:02.219Z,16.00
2023-02-17T19:22:30.785Z,15.00
2023-02-17T19:24:58.843Z,14.23
2023-02-17T19:27:26.987Z,13.38
2023-02-17T19:29:54.840Z,15.52
2023-02-17T19:32:23.143Z,14.15
2023-02-17T19:34:51.308Z,12.07
2023-02-17T19:37:20.701Z,12.80
2023-02-17T19:39:49.022Z,11.60
2023-02-17T19:42:17.020Z,13.63
2023-02-17T19:44:45.774Z,14.50
2023-02-17T19:47:13.707Z,12.95
2023-02-17T19:49:42.991Z,12.68
2023-02-17T19:52:11.191Z,11.50
2023-02-17T19:54:39.549Z,12.80
2023-02-17T19:57:07.781Z,12.35
2023-02-17T19:59:36.716Z,12.77
2023-02-17T20:02:05.490Z,12.48
2023-02-17T20:04:35.331Z,12.40
2023-02-17T20:07:03.121Z,11.68
2023-02-17T20:09:34.155Z,11.10
2023-02-17T20:12:02.622Z,11.68
2023-02-17T20:14:32.701Z,11.93
2023-02-17T20:17:02.052Z,11.50
2023-02-17T20:19:30.406Z,11.93
2023-02-17T20:22:00.904Z,13.75
2023-02-17T20:24:29.664Z,15.63
2023-02-17T20:26:57.829Z,12.73
2023-02-17T20:29:25.703Z,11.73
2023-02-17T20:31:55.878Z,14.05
2023-02-17T20:34:28.366Z,13.85
2023-02-17T20:36:56.881Z,13.48
2023-02-17T20:39:26.004Z,14.15
2023-02-17T20:41:54.693Z,13.13
2023-02-17T20:44:23.156Z,13.30
2023-02-17T20:46:51.552Z,13.40
2023-02-17T20:49:20.800Z,15.25
2023-02-17T20:51:48.974Z,15.35
2023-02-17T20:54:16.841Z,15.52
2023-02-17T20:56:46.184Z,13.07
2023-02-17T20:59:14.691Z,13.55
2023-02-17T21:01:45.967Z,14.50
2023-02-17T21:04:15.526Z,14.48
2023-02-17T21:06:45.719Z,14.77
2023-02-17T21:09:17.104Z,14.65
2023-02-17T21:11:45.535Z,14.27
2023-02-17T21:14:14.214Z,15.38
2023-02-17T21:16:50.438Z,14.10
2023-02-17T21:19:19.749Z,15.43
2023-02-17T21:21:47.843Z,12.85
2023-02-17T21:24:15.861Z,15.32
2023-02-17T21:26:43.779Z,14.15
2023-02-17T21:29:11.971Z,15.25
2023-02-17T21:31:40.265Z,15.82
2023-02-17T21:34:09.053Z,15.77
2023-02-17T21:36:36.788Z,14.43
2023-02-17T21:39:04.887Z,14.57
2023-02-17T21:41:33.245Z,14.80
2023-02-17T21:44:25.036Z,16.27
2023-02-17T21:46:54.021Z,12.15
2023-02-17T21:49:21.883Z,14.57
2023-02-17T21:51:50.090Z,14.57
2023-02-17T21:54:18.200Z,13.80
2023-02-17T21:56:46.405Z,14.65
2023-02-17T21:59:14.225Z,11.95
2023-02-17T22:01:42.651Z,13.57
2023-02-17T22:04:10.591Z,13.85
2023-02-17T22:06:40.502Z,13.45
2023-02-17T22:09:08.927Z,15.00
2023-02-17T22:11:40.049Z,23.97
2023-02-17T22:14:10.357Z,14.45
2023-02-17T22:16:38.391Z,14.95
2023-02-17T22:19:07.980Z,12.40
2023-02-17T22:21:36.569Z,14.90
2023-02-17T22:24:04.867Z,14.88
2023-02-17T22:26:33.532Z,14.10
2023-02-17T22:29:01.436Z,15.02
2023-02-17T22:31:31.314Z,15.00
2023-02-17T22:34:02.481Z,12.90
2023-02-17T22:36:32.441Z,12.25
2023-02-17T22:39:00.364Z,15.38
2023-02-17T22:41:28.210Z,15.27
2023-02-17T22:43:56.145Z,14.93
2023-02-17T22:46:24.982Z,14.88
2023-02-17T22:48:53.179Z,14.48
2023-02-17T22:51:23.669Z,17.30
2023-02-17T22:53:51.679Z,15.18
2023-02-17T22:56:20.476Z,15.77
2023-02-17T22:58:50.672Z,15.27
2023-02-17T23:01:20.757Z,16.92
2023-02-17T23:03:53.033Z,16.83
2023-02-17T23:06:35.702Z,16.80
2023-02-17T23:09:04.715Z,16.95
2023-02-17T23:11:52.541Z,19.08
2023-02-17T23:14:24.369Z,16.92
2023-02-17T23:16:52.479Z,17.00
2023-02-17T23:19:21.867Z,18.58
2023-02-17T23:21:52.178Z,19.27
2023-02-17T23:24:20.327Z,18.35
2023-02-17T23:26:48.128Z,18.02
2023-02-17T23:29:16.479Z,21.13
2023-02-17T23:31:44.487Z,19.40
2023-02-17T23:34:13.433Z,20.70
2023-02-17T23:36:43.345Z,14.70
2023-02-17T23:39:10.986Z,20.55
2023-02-17T23:41:39.024Z,22.27
2023-02-17T23:44:08.036Z,22.48
2023-02-17T23:46:36.116Z,20.15
2023-02-17T23:49:03.956Z,19.75
2023-02-17T23:51:31.949Z,21.38
2023-02-17T23:54:00.025Z,21.52
2023-02-17T23:56:30.679Z,22.90
2023-02-17T23:58:58.561Z,16.90
